James Creek, Pennsylvania
Current Conditions -  °F | °C
As of 9:53 PM on Monday 22 Dec 2014 (Local Time) from KAOO Reporting Station
Haze Haze  
Wind Chill: 31°   Ceiling: 400
Heat Index: 31°   Visibility: 2mi
Dew Point: 30°   Wind: 0mph
Humidity: 96%   Direction: NA
Pressure: 30.1"   Gusts: NA
Location:  40.39°N, 78.17°W
Report Text: KAOO 230253Z AUTO 00000KT 2SM BR OVC004 M01/M01 A3010 RMK AO2 SLP211 I1001 I3002 T10061011 55006
Loading
Personal Weather Stations






























Interactive Weather Map New forecast layout! Learn more

10-Day Weather Forecast

Advertisements
Track Severe Weather on mobile